createdAt,value
2022-12-08T00:02:17.077Z,99972.22
2022-12-08T00:05:37.829Z,99971.25
2022-12-08T00:08:58.651Z,99966.00
2022-12-08T00:12:03.229Z,99963.37
2022-12-08T00:15:05.896Z,99960.72
2022-12-08T00:18:08.233Z,99965.06
2022-12-08T00:21:10.453Z,99967.59
2022-12-08T00:24:12.654Z,99966.69
2022-12-08T00:27:16.475Z,99965.00
2022-12-08T00:30:18.783Z,99962.37
2022-12-08T00:33:20.851Z,99958.84
2022-12-08T00:36:22.948Z,99963.13
2022-12-08T00:39:25.262Z,99964.84
2022-12-08T00:42:27.337Z,99966.50
2022-12-08T00:45:29.601Z,99957.78
2022-12-08T00:48:32.489Z,99966.41
2022-12-08T00:51:34.600Z,99959.47
2022-12-08T00:54:36.774Z,99954.31
2022-12-08T00:57:38.875Z,99949.06
2022-12-08T01:00:42.128Z,99953.41
2022-12-08T01:03:44.872Z,99957.78
2022-12-08T01:06:47.892Z,99948.28
2022-12-08T01:09:49.957Z,99948.16
2022-12-08T01:12:52.028Z,99947.16
2022-12-08T01:15:54.027Z,99949.75
2022-12-08T01:18:57.414Z,99948.78
2022-12-08T01:21:59.557Z,99953.13
2022-12-08T01:25:02.293Z,99953.13
2022-12-08T01:28:04.484Z,99950.50
2022-12-08T01:31:12.474Z,99949.56
2022-12-08T01:34:14.614Z,99947.03
2022-12-08T01:37:17.216Z,99934.13
2022-12-08T01:40:19.462Z,99942.88
2022-12-08T01:43:21.508Z,99939.28
2022-12-08T01:46:24.811Z,99937.66
2022-12-08T01:49:33.022Z,99932.47
2022-12-08T01:52:41.569Z,99931.53
2022-12-08T01:55:55.246Z,99940.28
2022-12-08T01:58:58.284Z,99928.12
2022-12-08T02:02:00.283Z,99917.78
2022-12-08T02:05:03.517Z,99910.25
2022-12-08T02:08:10.793Z,99905.81
2022-12-08T02:11:13.666Z,99902.34
2022-12-08T02:14:15.933Z,99899.75
2022-12-08T02:17:54.404Z,99895.34
2022-12-08T02:21:01.325Z,99898.78
2022-12-08T02:24:22.110Z,99904.81
2022-12-08T02:27:41.402Z,99897.94
2022-12-08T02:31:25.258Z,99885.78
2022-12-08T02:34:36.367Z,99882.25
2022-12-08T02:37:48.041Z,99871.84
2022-12-08T02:41:01.298Z,99870.03
2022-12-08T02:44:27.793Z,99865.59
2022-12-08T02:47:32.357Z,99864.69
2022-12-08T02:50:34.593Z,99863.87
2022-12-08T02:53:37.019Z,99854.25
2022-12-08T02:56:47.933Z,99849.91
2022-12-08T03:00:02.387Z,99849.88
2022-12-08T03:03:29.137Z,99843.78
2022-12-08T03:06:53.159Z,99856.78
2022-12-08T03:10:05.461Z,99848.00
2022-12-08T03:13:17.517Z,99843.69
2022-12-08T03:16:25.393Z,99847.06
2022-12-08T03:19:32.658Z,99847.00
2022-12-08T03:22:34.784Z,99844.31
2022-12-08T03:25:43.315Z,99845.16
2022-12-08T03:28:45.919Z,99839.94
2022-12-08T03:31:54.246Z,99834.59
2022-12-08T03:35:00.254Z,99837.94
2022-12-08T03:38:14.463Z,99823.25
2022-12-08T03:41:19.204Z,99833.59
2022-12-08T03:44:21.324Z,99825.78
2022-12-08T03:47:23.475Z,99831.88
2022-12-08T03:50:26.317Z,99832.66
2022-12-08T03:53:28.435Z,99832.72
2022-12-08T03:56:33.127Z,99823.16
2022-12-08T03:59:35.206Z,99822.31
2022-12-08T04:02:37.263Z,99823.16
2022-12-08T04:05:39.312Z,99823.13
2022-12-08T04:08:41.835Z,99810.19
2022-12-08T04:11:43.908Z,99816.28
2022-12-08T04:14:45.953Z,99803.25
2022-12-08T04:17:47.942Z,99804.88
2022-12-08T04:20:50.235Z,99803.09
2022-12-08T04:23:57.553Z,99799.53
2022-12-08T04:27:02.770Z,99800.41
2022-12-08T04:30:05.805Z,99796.91
2022-12-08T04:33:08.153Z,99797.75
2022-12-08T04:36:10.338Z,99795.06
2022-12-08T04:39:12.412Z,99804.63
2022-12-08T04:42:14.462Z,99799.41
2022-12-08T04:45:16.638Z,99795.87
2022-12-08T04:48:18.839Z,99798.34
2022-12-08T04:51:21.393Z,99782.78
2022-12-08T04:54:23.441Z,99784.47
2022-12-08T04:57:25.486Z,99779.09
2022-12-08T05:00:30.140Z,99775.53
2022-12-08T05:03:32.152Z,99775.47
2022-12-08T05:06:34.166Z,99771.84
2022-12-08T05:09:36.235Z,99766.47
2022-12-08T05:12:38.266Z,99760.31
2022-12-08T05:15:40.267Z,99773.25
2022-12-08T05:18:42.942Z,99784.47
2022-12-08T05:21:45.678Z,99781.81
2022-12-08T05:24:47.966Z,99778.31
2022-12-08T05:27:50.220Z,99780.09
2022-12-08T05:30:53.001Z,99776.62
2022-12-08T05:33:59.564Z,99760.97
2022-12-08T05:37:04.761Z,99753.06
2022-12-08T05:40:07.745Z,99754.03
2022-12-08T05:43:10.702Z,99761.75
2022-12-08T05:46:13.308Z,99754.88
2022-12-08T05:49:15.481Z,99754.88
2022-12-08T05:52:17.864Z,99740.16
2022-12-08T05:55:19.925Z,99730.75
2022-12-08T05:58:23.300Z,99741.87
2022-12-08T06:01:30.718Z,99751.31
2022-12-08T06:04:32.761Z,99759.97
2022-12-08T06:07:34.816Z,99758.13
2022-12-08T06:10:38.854Z,99756.28
2022-12-08T06:13:40.829Z,99763.09
2022-12-08T06:16:42.837Z,99767.44
2022-12-08T06:19:44.884Z,99751.78
2022-12-08T06:22:46.853Z,99748.28
2022-12-08T06:25:48.866Z,99749.97
2022-12-08T06:28:51.244Z,99766.44
2022-12-08T06:31:53.542Z,99774.16
2022-12-08T06:34:55.647Z,99781.06
2022-12-08T06:37:57.601Z,99785.31
2022-12-08T06:41:00.384Z,99786.09
2022-12-08T06:44:02.555Z,99779.09
2022-12-08T06:47:04.648Z,99778.97
2022-12-08T06:50:11.124Z,99782.50
2022-12-08T06:53:15.075Z,99782.41
2022-12-08T06:56:20.210Z,99781.44
2022-12-08T06:59:22.746Z,99767.53
2022-12-08T07:02:25.704Z,99766.53
2022-12-08T07:05:27.894Z,99754.47
2022-12-08T07:08:30.311Z,99760.19
2022-12-08T07:11:32.535Z,99759.28
2022-12-08T07:14:34.507Z,99746.22
2022-12-08T07:17:36.594Z,99739.19
2022-12-08T07:20:38.953Z,99739.97
2022-12-08T07:23:41.942Z,99744.34
2022-12-08T07:26:44.024Z,99745.38
2022-12-08T07:29:46.075Z,99749.56
2022-12-08T07:32:48.070Z,99753.97
2022-12-08T07:36:04.102Z,99753.84
2022-12-08T07:39:06.523Z,99740.72
2022-12-08T07:42:08.631Z,99739.88
2022-12-08T07:45:10.866Z,99731.19
2022-12-08T07:48:13.101Z,99726.59
2022-12-08T07:51:16.594Z,99732.56
2022-12-08T07:54:19.096Z,99733.34
2022-12-08T07:57:21.166Z,99722.88
2022-12-08T08:00:23.652Z,99721.94
2022-12-08T08:03:25.633Z,99720.22
2022-12-08T08:06:28.541Z,99722.81
2022-12-08T08:09:30.542Z,99723.66
2022-12-08T08:12:33.397Z,99729.59
2022-12-08T08:15:35.915Z,99724.47
2022-12-08T08:18:38.156Z,99725.28
2022-12-08T08:21:45.978Z,99720.00
2022-12-08T08:24:48.493Z,99721.63
2022-12-08T08:27:50.969Z,99728.56
2022-12-08T08:30:53.081Z,99722.41
2022-12-08T08:33:56.760Z,99723.00
2022-12-08T08:36:58.914Z,99711.75
2022-12-08T08:40:01.152Z,99716.81
2022-12-08T08:43:05.735Z,99713.19
2022-12-08T08:46:09.183Z,99718.25
2022-12-08T08:49:11.774Z,99720.53
2022-12-08T08:52:14.050Z,99721.97
2022-12-08T08:55:16.721Z,99706.06
2022-12-08T08:58:18.947Z,99697.19
2022-12-08T09:01:27.080Z,99688.09
2022-12-08T09:04:29.338Z,99689.44
2022-12-08T09:07:31.658Z,99677.72
2022-12-08T09:10:34.128Z,99681.50
2022-12-08T09:13:36.340Z,99680.47
2022-12-08T09:16:42.240Z,99671.78
2022-12-08T09:19:44.738Z,99673.19
2022-12-08T09:22:46.811Z,99670.16
2022-12-08T09:25:48.918Z,99669.56
2022-12-08T09:28:52.813Z,99674.50
2022-12-08T09:31:56.288Z,99668.22
2022-12-08T09:34:58.457Z,99662.03
2022-12-08T09:38:00.545Z,99660.25
2022-12-08T09:41:05.243Z,99662.62
2022-12-08T09:44:28.469Z,99661.56
2022-12-08T09:47:36.516Z,99657.06
2022-12-08T09:50:58.483Z,99661.41
2022-12-08T09:54:12.082Z,99648.13
2022-12-08T09:57:19.459Z,99649.87
2022-12-08T10:00:21.939Z,99654.28
2022-12-08T10:03:28.024Z,99664.72
2022-12-08T10:06:56.846Z,99666.69
2022-12-08T10:10:35.832Z,99666.16
2022-12-08T10:14:04.539Z,99656.34
2022-12-08T10:17:25.679Z,99660.53
2022-12-08T10:20:37.685Z,99651.00
2022-12-08T10:23:43.545Z,99651.78
2022-12-08T10:26:47.123Z,99649.28
2022-12-08T10:29:49.306Z,99639.59
2022-12-08T10:32:53.555Z,99635.97
2022-12-08T10:35:58.614Z,99643.69
2022-12-08T10:39:01.528Z,99640.00
2022-12-08T10:42:15.895Z,99636.53
2022-12-08T10:45:37.701Z,99629.53
2022-12-08T10:49:10.972Z,99610.44
2022-12-08T10:52:25.360Z,99608.62
2022-12-08T10:55:28.756Z,99598.16
2022-12-08T10:58:36.738Z,99593.75
2022-12-08T11:01:40.731Z,99592.84
2022-12-08T11:04:42.970Z,99580.50
2022-12-08T11:07:54.113Z,99587.41
2022-12-08T11:10:56.410Z,99574.25
2022-12-08T11:13:58.543Z,99579.63
2022-12-08T11:17:33.152Z,99580.50
2022-12-08T11:20:41.217Z,99575.41
2022-12-08T11:23:48.847Z,99574.75
2022-12-08T11:27:02.911Z,99575.84
2022-12-08T11:30:15.530Z,99575.22
2022-12-08T11:33:20.787Z,99568.97
2022-12-08T11:36:25.734Z,99568.84
2022-12-08T11:39:32.441Z,99564.50
2022-12-08T11:42:45.699Z,99557.53
2022-12-08T11:45:53.253Z,99542.69
2022-12-08T11:49:06.827Z,99544.91
2022-12-08T11:52:24.254Z,99541.13
2022-12-08T11:55:45.163Z,99535.87
2022-12-08T11:59:13.251Z,99527.16
2022-12-08T12:02:20.317Z,99527.16
2022-12-08T12:10:04.452Z,99527.91
2022-12-08T12:13:31.048Z,99521.87
2022-12-08T12:17:00.997Z,99524.50
2022-12-08T12:20:10.167Z,99516.91
2022-12-08T12:23:18.768Z,99523.22
2022-12-08T12:26:26.516Z,99517.91
2022-12-08T12:29:33.445Z,99509.06
2022-12-08T12:32:48.476Z,99513.09
2022-12-08T12:35:50.835Z,99519.25
2022-12-08T12:39:03.292Z,99511.47
2022-12-08T12:42:05.552Z,99508.16
2022-12-08T12:45:29.469Z,99498.87
2022-12-08T12:48:31.537Z,99500.78
2022-12-08T12:51:45.904Z,99500.84
2022-12-08T12:54:51.028Z,99506.72
2022-12-08T12:57:56.831Z,99511.81
2022-12-08T13:01:14.048Z,99509.34
2022-12-08T13:04:18.052Z,99500.72
2022-12-08T13:07:23.369Z,99497.25
2022-12-08T13:10:38.331Z,99490.09
2022-12-08T13:13:58.637Z,99481.22
2022-12-08T13:17:04.689Z,99481.94
2022-12-08T13:20:17.497Z,99477.41
2022-12-08T13:23:42.978Z,99462.50
2022-12-08T13:26:50.057Z,99464.88
2022-12-08T13:30:30.890Z,99462.53
2022-12-08T13:33:39.711Z,99467.41
2022-12-08T13:36:55.350Z,99471.59
2022-12-08T13:40:28.354Z,99471.47
2022-12-08T13:43:51.308Z,99467.00
2022-12-08T13:47:32.361Z,99467.78
2022-12-08T13:57:37.733Z,99470.25
2022-12-08T14:00:39.855Z,99472.72
2022-12-08T14:04:30.572Z,99473.56
2022-12-08T14:07:14.924Z,99462.25
2022-12-08T14:10:19.651Z,99465.66
2022-12-08T14:13:21.668Z,99467.34
2022-12-08T14:16:37.690Z,99462.13
2022-12-08T14:19:42.317Z,99463.94
2022-12-08T14:22:44.543Z,99460.44
2022-12-08T14:25:48.420Z,99459.69
2022-12-08T14:28:50.431Z,99457.16
2022-12-08T14:31:53.899Z,99462.25
2022-12-08T14:35:17.613Z,99463.94
2022-12-08T14:38:21.638Z,99470.91
2022-12-08T14:41:32.884Z,99471.03
2022-12-08T14:44:39.631Z,99469.31
2022-12-08T14:47:42.321Z,99466.78
2022-12-08T14:50:56.412Z,99471.94
2022-12-08T14:54:14.535Z,99478.94
2022-12-08T14:57:16.805Z,99479.78
2022-12-08T15:00:22.156Z,99486.75
2022-12-08T15:03:27.444Z,99476.28
2022-12-08T15:06:29.541Z,99488.34
2022-12-08T15:09:31.459Z,99490.97
2022-12-08T15:12:33.667Z,99489.28
2022-12-08T15:15:56.951Z,99487.50
2022-12-08T15:19:27.754Z,99486.66
2022-12-08T15:22:31.064Z,99481.50
2022-12-08T15:25:33.168Z,99490.25
2022-12-08T15:28:35.209Z,99488.63
2022-12-08T15:31:37.380Z,99487.78
2022-12-08T15:34:39.624Z,99486.16
2022-12-08T15:37:42.221Z,99484.59
2022-12-08T15:40:44.249Z,99486.53
2022-12-08T15:43:46.218Z,99492.69
2022-12-08T15:46:50.095Z,99495.31
2022-12-08T15:49:55.574Z,99490.91
2022-12-08T15:52:57.821Z,99496.06
2022-12-08T15:59:31.804Z,99497.81
2022-12-08T16:02:49.459Z,99488.16
2022-12-08T16:06:39.132Z,99503.00
2022-12-08T16:09:25.996Z,99504.78
2022-12-08T16:16:14.103Z,99503.06
2022-12-08T16:19:16.187Z,99507.44
2022-12-08T16:26:16.384Z,99504.97
2022-12-08T16:29:06.933Z,99497.13
2022-12-08T16:32:09.217Z,99489.41
2022-12-08T16:35:12.446Z,99492.81
2022-12-08T16:38:16.590Z,99495.78
2022-12-08T16:41:37.298Z,99495.00
2022-12-08T16:44:42.279Z,99498.53
2022-12-08T16:47:47.710Z,99508.09
2022-12-08T16:50:50.429Z,99495.84
2022-12-08T16:53:52.630Z,99496.78
2022-12-08T16:56:54.838Z,99500.25
2022-12-08T16:59:56.945Z,99491.47
2022-12-08T17:02:59.153Z,99501.94
2022-12-08T17:06:01.338Z,99496.69
2022-12-08T17:09:03.568Z,99495.78
2022-12-08T17:12:05.837Z,99505.25
2022-12-08T17:15:11.611Z,99500.81
2022-12-08T17:18:13.664Z,99494.66
2022-12-08T17:21:17.063Z,99493.66
2022-12-08T17:24:22.244Z,99488.44
2022-12-08T17:27:25.368Z,99491.03
2022-12-08T17:30:27.960Z,99491.91
2022-12-08T17:33:30.080Z,99494.44
2022-12-08T17:36:32.519Z,99481.44
2022-12-08T17:39:34.876Z,99484.00
2022-12-08T17:42:38.274Z,99488.28
2022-12-08T17:45:45.943Z,99489.13
2022-12-08T17:48:49.011Z,99476.13
2022-12-08T17:51:53.795Z,99490.06
2022-12-08T17:54:56.145Z,99492.81
2022-12-08T17:57:58.422Z,99506.53
2022-12-08T18:01:01.351Z,99515.16
2022-12-08T18:04:07.307Z,99515.88
2022-12-08T18:07:09.568Z,99512.41
2022-12-08T18:10:12.584Z,99508.09
2022-12-08T18:13:14.956Z,99505.41
2022-12-08T18:16:19.283Z,99494.09
2022-12-08T18:19:22.249Z,99494.09
2022-12-08T18:22:24.881Z,99501.94
2022-12-08T18:25:27.186Z,99509.78
2022-12-08T18:28:29.769Z,99503.56
2022-12-08T18:31:32.273Z,99491.37
2022-12-08T18:34:35.575Z,99500.16
2022-12-08T18:37:38.263Z,99492.25
2022-12-08T18:40:40.927Z,99493.09
2022-12-08T18:43:43.252Z,99497.34
2022-12-08T18:46:45.793Z,99492.97
2022-12-08T18:49:49.202Z,99497.22
2022-12-08T18:52:51.837Z,99503.28
2022-12-08T18:55:54.600Z,99493.66
2022-12-08T18:59:03.356Z,99494.59
2022-12-08T19:02:06.801Z,99496.97
2022-12-08T19:05:12.375Z,99488.16
2022-12-08T19:08:15.028Z,99489.97
2022-12-08T19:11:19.573Z,99500.59
2022-12-08T19:14:27.748Z,99498.13
2022-12-08T19:17:31.341Z,99493.81
2022-12-08T19:20:34.261Z,99483.47
2022-12-08T19:23:38.294Z,99481.78
2022-12-08T19:26:42.679Z,99486.25
2022-12-08T19:29:46.892Z,99489.66
2022-12-08T19:32:51.602Z,99485.44
2022-12-08T19:35:54.963Z,99497.78
2022-12-08T19:39:17.956Z,99498.47
2022-12-08T19:42:41.513Z,99495.16
2022-12-08T19:45:45.086Z,99512.63
2022-12-08T19:48:48.408Z,99510.91
2022-12-08T19:51:51.101Z,99522.31
2022-12-08T19:54:55.028Z,99520.53
2022-12-08T19:58:00.184Z,99517.00
2022-12-08T20:01:03.868Z,99518.84
2022-12-08T20:04:07.648Z,99515.31
2022-12-08T20:07:13.217Z,99513.53
2022-12-08T20:10:23.418Z,99517.88
2022-12-08T20:13:45.040Z,99517.88
2022-12-08T20:16:48.178Z,99512.63
2022-12-08T20:19:51.516Z,99511.63
2022-12-08T20:22:54.538Z,99505.63
2022-12-08T20:25:57.785Z,99498.63
2022-12-08T20:29:01.582Z,99493.38
2022-12-08T20:32:04.748Z,99496.06
2022-12-08T20:35:08.477Z,99499.47
2022-12-08T20:38:13.132Z,99510.91
2022-12-08T20:41:18.338Z,99513.53
2022-12-08T20:44:21.605Z,99517.00
2022-12-08T20:47:25.619Z,99510.88
2022-12-08T20:50:29.313Z,99501.28
2022-12-08T20:53:32.005Z,99506.53
2022-12-08T20:56:34.760Z,99513.47
2022-12-08T20:59:38.419Z,99509.09
2022-12-08T21:02:47.736Z,99505.63
2022-12-08T21:05:52.908Z,99492.75
2022-12-08T21:08:55.404Z,99509.28
2022-12-08T21:11:57.801Z,99513.63
2022-12-08T21:15:00.305Z,99506.66
2022-12-08T21:18:02.508Z,99504.97
2022-12-08T21:21:07.689Z,99508.53
2022-12-08T21:24:10.948Z,99499.97
2022-12-08T21:27:13.176Z,99524.00
2022-12-08T21:30:15.650Z,99523.09
2022-12-08T21:33:18.013Z,99516.16
2022-12-08T21:36:21.462Z,99503.16
2022-12-08T21:39:23.842Z,99501.44
2022-12-08T21:42:44.436Z,99524.12
2022-12-08T21:45:46.659Z,99527.59
2022-12-08T21:48:49.165Z,99531.00
2022-12-08T21:51:51.896Z,99525.78
2022-12-08T21:54:54.161Z,99531.84
2022-12-08T21:57:57.301Z,99528.34
2022-12-08T22:01:05.711Z,99528.25
2022-12-08T22:04:08.017Z,99515.16
2022-12-08T22:07:10.143Z,99520.47
2022-12-08T22:10:12.438Z,99513.63
2022-12-08T22:13:14.879Z,99506.66
2022-12-08T22:16:17.351Z,99501.44
2022-12-08T22:19:19.604Z,99512.81
2022-12-08T22:22:21.918Z,99501.44
2022-12-08T22:25:24.113Z,99492.69
2022-12-08T22:28:28.119Z,99498.75
2022-12-08T22:31:30.678Z,99498.69
2022-12-08T22:34:33.167Z,99497.78
2022-12-08T22:37:35.550Z,99482.84
2022-12-08T22:40:40.982Z,99482.78
2022-12-08T22:43:43.872Z,99487.16
2022-12-08T22:46:46.124Z,99473.28
2022-12-08T22:49:49.213Z,99488.84
2022-12-08T22:52:51.470Z,99472.38
2022-12-08T22:55:53.820Z,99468.06
2022-12-08T22:58:56.112Z,99474.97
2022-12-08T23:01:58.288Z,99472.44
2022-12-08T23:05:00.630Z,99453.28
2022-12-08T23:08:04.304Z,99451.44
2022-12-08T23:11:06.638Z,99459.28
2022-12-08T23:14:08.589Z,99466.38
2022-12-08T23:17:10.712Z,99465.53
2022-12-08T23:20:13.059Z,99454.19
2022-12-08T23:23:15.679Z,99465.53
2022-12-08T23:26:21.974Z,99458.56
2022-12-08T23:29:24.280Z,99455.06
2022-12-08T23:32:27.483Z,99454.19
2022-12-08T23:35:29.656Z,99460.28
2022-12-08T23:38:31.695Z,99455.13
2022-12-08T23:41:33.754Z,99448.94
2022-12-08T23:44:35.698Z,99454.19
2022-12-08T23:47:37.784Z,99454.19
2022-12-08T23:50:40.035Z,99461.13
2022-12-08T23:53:43.586Z,99461.13
2022-12-08T23:56:45.791Z,99455.06
2022-12-08T23:59:48.256Z,99451.56
